• Join FlightAware (Why Join?)
  • Login
  • US Flag 
02:37AM EST


 

Airport Tracker/Info


-or-


 

Live Flight TrackerFlight Track Log ✈ SWA3764 ✈ 26-Apr-2013 ✈ KBNA - KECP

Flight Track Log - Related Links

Times and Time Zones

All times are in EDT time to prevent confusion due to time zone crossing. See the SWA3764 flight status page for this flight to view local times or setup timezone preferences in your user account.

Time Position Orientation Groundspeed Altitude Reporting Facility
EDT Latitude Longitude Course Direction KTS MPH feet Rate Location/Type
09:22AM 36.1667 -86.6333 39° Northeast 171 197 2,700  Level Nashville TRACON
09:23AM 36.1833 -86.5667 73° East 211 243 5,700 2,400 Climbing Nashville TRACON
09:24AM 36.0614 -86.5775 184° South 299 344 9,600 1,500 Climbing Memphis Center
09:25AM 35.9767 -86.6069 196° South 299 344 10,000 360 Climbing Memphis Center
09:26AM 35.8925 -86.6494 202° Southwest 321 369 10,400 2,160 Climbing Memphis Center
09:27AM 35.8000 -86.6944 202° Southwest 326 375 14,400 3,360 Climbing Memphis Center
09:28AM 35.7094 -86.7394 202° Southwest 340 391 17,200 2,760 Climbing Memphis Center
09:30AM 35.5375 -86.7772 190° South 369 425 22,100 2,700 Climbing Atlanta Center
09:31AM 35.4164 -86.7833 182° South 395 455 24,600 2,280 Climbing Atlanta Center
09:32AM 35.2953 -86.7947 184° South 415 478 26,700 2,160 Climbing Atlanta Center
09:33AM 35.1719 -86.8006 182° South 432 497 29,000 2,220 Climbing Atlanta Center
09:34AM 35.0486 -86.8092 183° South 447 514 31,200 2,040 Climbing Atlanta Center
09:35AM 34.9253 -86.8178 183° South 447 514 33,100 1,800 Climbing Atlanta Center
09:36AM 34.7981 -86.8236 182° South 447 514 34,800 1,800 Climbing Atlanta Center
09:37AM 34.6725 -86.8322 183° South 447 514 36,700 1,500 Climbing Atlanta Center
09:38AM 34.5742 -86.8389 183° South 447 514 37,900 600 Climbing Atlanta Center
09:39AM 34.4406 -86.8447 182° South 447 514 38,000  Climbing Atlanta Center
09:40AM 34.3139 -86.8153 169° South 442 509 38,000 -300 Level Atlanta Center
09:41AM 34.1894 -86.7861 169° South 454 522 37,500 -540 Descending Atlanta Center
09:42AM 34.0650 -86.7544 168° South 460 529 37,000 -300 Descending Atlanta Center
09:43AM 33.9361 -86.7253 169° South 466 536 37,000  Level Atlanta Center
09:44AM 33.8117 -86.6939 168° South 466 536 37,000  Level Atlanta Center
09:45AM 33.6869 -86.6628 168° South 466 536 37,000  Level Atlanta Center
09:46AM 33.5583 -86.6339 169° South 466 536 37,000  Level Atlanta Center
09:47AM 33.4336 -86.6028 168° South 466 536 37,000  Level Atlanta Center
09:48AM 33.2964 -86.5814 173° South 466 536 37,000  Level Atlanta Center
09:49AM 33.1739 -86.5406 164° South 460 529 37,000  Level Atlanta Center
09:50AM 33.0472 -86.5119 169° South 460 529 37,000  Level Atlanta Center
09:51AM 32.9225 -86.4814 168° South 465 535 37,000 -420 Level Atlanta Center
09:52AM 32.8000 -86.4556 170° South 465 535 36,200 -900 Descending Atlanta Center
09:53AM 32.6733 -86.4275 169° South 465 535 35,200 -960 Descending Atlanta Center
09:54AM 32.5486 -86.3969 168° South 465 535 34,300 -900 Descending Atlanta Center
09:55AM 32.4281 -86.3692 169° South 474 545 33,400 -960 Descending Atlanta Center
09:56AM 32.3075 -86.3392 168° South 467 537 32,400 -1,080 Descending Atlanta Center
09:58AM 32.0606 -86.2828 169° South 473 544 30,300 -1,140 Descending Jacksonville Center
09:59AM 31.9444 -86.2514 167° South 458 527 29,100 -1,500 Descending Jacksonville Center
10:00AM 31.8283 -86.2228 168° South 445 512 27,300 -1,860 Descending Jacksonville Center
10:01AM 31.7186 -86.1944 168° South 422 486 25,400 -1,680 Descending Jacksonville Center
10:02AM 31.6128 -86.1664 167° South 407 468 24,000 -1,800 Descending Jacksonville Center
10:03AM 31.5111 -86.1383 167° South 391 450 21,900 -1,800 Descending Jacksonville Center
10:04AM 31.4097 -86.1081 166° South 386 444 20,500 -1,500 Descending Jacksonville Center
10:05AM 31.3164 -86.0806 166° South 367 422 19,000 -1,380 Descending Jacksonville Center
10:06AM 31.2192 -86.0506 165° South 361 415 17,800 -1,560 Descending Jacksonville Center
10:06AM 31.1797 -86.0394 166° South 359 413 17,000 -1,920 Descending Jacksonville Center
10:07AM 31.1217 -86.0231 166° South 361 415 15,900 -1,800 Descending Jacksonville Center
10:08AM 31.0242 -85.9906 164° South 361 415 14,000 -2,040 Descending Jacksonville Center
10:09AM 30.9828 -85.9819 170° South 358 412 13,200 -1,800 Descending Jacksonville Center
10:09AM 30.9311 -85.9611 161° South 356 410 12,200 -1,740 Descending Jacksonville Center
10:10AM 30.8378 -85.9361 167° South 356 410 10,400 -1,380 Descending Jacksonville Center
10:11AM 30.7528 -85.9019 161° South 343 395 9,500 -1,140 Descending Jacksonville Center
10:12AM 30.6786 -85.8658 157° South 317 365 8,200 -1,500 Descending Jacksonville Center
10:13AM 30.6042 -85.8297 157° South 295 339 6,600 -1,560 Descending Jacksonville Center
10:14AM 30.5258 -85.7936 158° South 289 333 5,100 -1,200 Descending Jacksonville Center
10:15AM 30.4658 -85.7653 158° South 276 318 4,200 -1,140 Descending Jacksonville Center
10:16AM 30.4017 -85.7392 161° South 248 285 2,900 -1,020 Descending Jacksonville Center
10:17AM 30.3458 -85.7158 160° South 222 255 2,200 -420 Descending Jacksonville Center
10:18AM 30.2983 -85.6978 162° South 203 234 2,100 -300 Descending Jacksonville Center
10:19AM 30.2869 -85.7431 254° West 146 168 1,600 -720 Descending Jacksonville Center
10:20AM 30.3153 -85.7753 316° Northwest 89 102 700 2,160 Descending Jacksonville Center
10:21AM 30.3400 -85.7975 322° Northwest 95 109 6,000 2,580 Climbing Jacksonville Center
10:22AM 30.3561 -85.8222 307° West 95 109 6,000  Level Jacksonville Center